Time;durP1;ratioP1;P1;durP2;ratioP2;P2;SDS_P1;SDS_P2;PMS_P1;PMS_P2;Temp;Humidity;BMP_temperature;BMP_pressure;BME280_temperature;BME280_humidity;BME280_pressure;Samples;Min_cycle;Max_cycle;Signal;HPM_P1;HPM_P2
2023/12/23 00:00:38;;;;;;;4.05;1.20;;;8.50;99.90;;;;;;4135900;28;20038;-69
2023/12/23 00:02:39;;;;;;;11.70;2.10;;;8.50;99.90;;;;;;4134823;28;20038;-69
2023/12/23 00:04:40;;;;;;;7.90;1.20;;;8.50;99.90;;;;;;4134737;28;20041;-69
2023/12/23 00:06:40;;;;;;;5.63;1.25;;;8.50;99.90;;;;;;4140503;28;20038;-69
2023/12/23 00:08:41;;;;;;;10.07;1.45;;;8.50;99.90;;;;;;4133938;28;20038;-69
2023/12/23 00:10:41;;;;;;;9.43;1.58;;;8.50;99.90;;;;;;4136401;28;20030;-69
2023/12/23 00:12:42;;;;;;;10.02;1.80;;;8.50;99.90;;;;;;4142390;28;20050;-69
2023/12/23 00:14:43;;;;;;;8.18;1.30;;;8.50;99.90;;;;;;4138207;28;20048;-69
2023/12/23 00:16:43;;;;;;;13.13;2.10;;;8.50;99.90;;;;;;4138147;28;20030;-70
2023/12/23 00:18:44;;;;;;;7.68;1.70;;;8.50;99.90;;;;;;4139976;28;20501;-69
2023/12/23 00:20:44;;;;;;;8.63;1.60;;;8.50;99.90;;;;;;4134727;28;20061;-69
2023/12/23 00:22:45;;;;;;;7.47;1.50;;;8.50;99.90;;;;;;4139226;28;20030;-69
2023/12/23 00:24:46;;;;;;;5.78;1.30;;;8.50;99.90;;;;;;4137271;28;20038;-69
2023/12/23 00:26:46;;;;;;;7.60;1.42;;;8.50;99.90;;;;;;4141020;28;20498;-69
2023/12/23 00:28:47;;;;;;;8.70;1.65;;;8.50;99.90;;;;;;4136000;28;20050;-69
2023/12/23 00:30:47;;;;;;;9.40;1.60;;;8.50;99.90;;;;;;4138663;28;20045;-69
2023/12/23 00:32:50;;;;;;;8.77;1.88;;;8.50;99.90;;;;;;4135634;28;20031;-69
2023/12/23 00:34:50;;;;;;;5.53;1.30;;;8.50;99.90;;;;;;4135087;28;20486;-69
2023/12/23 00:36:51;;;;;;;3.63;1.02;;;8.50;99.90;;;;;;4140885;28;20042;-68
2023/12/23 00:38:52;;;;;;;5.88;1.23;;;8.50;99.90;;;;;;4136488;28;20188;-70
2023/12/23 00:40:52;;;;;;;5.95;0.93;;;8.50;99.90;;;;;;4135335;28;20042;-69
2023/12/23 00:42:53;;;;;;;4.85;1.58;;;8.50;99.90;;;;;;4135345;28;20034;-70
2023/12/23 00:44:54;;;;;;;4.85;1.30;;;8.60;99.90;;;;;;4139272;28;20060;-69
2023/12/23 00:46:54;;;;;;;7.63;1.65;;;8.60;99.90;;;;;;4131042;28;20387;-70
2023/12/23 00:48:55;;;;;;;8.45;1.30;;;8.50;99.90;;;;;;4139360;28;20490;-70
2023/12/23 00:50:56;;;;;;;8.93;1.40;;;8.60;99.90;;;;;;4141898;28;20038;-70
2023/12/23 00:52:59;;;;;;;2.85;0.80;;;8.50;99.90;;;;;;4144941;28;20057;-70
2023/12/23 00:54:59;;;;;;;6.03;1.27;;;8.50;99.90;;;;;;4144905;28;20034;-70
2023/12/23 00:57:00;;;;;;;8.93;1.65;;;8.60;99.90;;;;;;4145252;28;20034;-70
2023/12/23 00:59:00;;;;;;;4.80;1.13;;;8.50;99.90;;;;;;4146108;28;20056;-65
2023/12/23 01:01:01;;;;;;;7.40;1.63;;;8.50;99.90;;;;;;4137238;28;20513;-71
2023/12/23 01:03:03;;;;;;;10.25;1.75;;;8.50;99.90;;;;;;4143231;28;20120;-71
2023/12/23 01:05:04;;;;;;;9.55;1.83;;;8.40;99.90;;;;;;4143959;28;20076;-72
2023/12/23 01:07:05;;;;;;;5.75;1.15;;;8.40;99.90;;;;;;4145979;28;20034;-72
2023/12/23 01:09:05;;;;;;;4.13;1.50;;;8.40;99.90;;;;;;4154960;28;20102;-71
2023/12/23 01:11:06;;;;;;;5.97;1.17;;;8.40;99.90;;;;;;4144184;28;20161;-72
2023/12/23 01:13:07;;;;;;;4.63;1.13;;;8.40;99.90;;;;;;4143474;28;20044;-72
2023/12/23 01:15:08;;;;;;;5.82;1.42;;;8.40;99.90;;;;;;4138798;28;20049;-72
2023/12/23 01:17:08;;;;;;;6.63;1.50;;;8.40;99.90;;;;;;4140037;28;20106;-72
2023/12/23 01:19:09;;;;;;;7.22;1.27;;;8.40;99.90;;;;;;4137126;28;20548;-72
2023/12/23 01:21:09;;;;;;;6.07;1.60;;;8.40;99.90;;;;;;4140670;28;20038;-72
2023/12/23 01:23:10;;;;;;;4.90;1.10;;;8.40;99.90;;;;;;4139038;28;20065;-72
2023/12/23 01:25:11;;;;;;;3.60;1.13;;;8.40;99.90;;;;;;4140774;28;20026;-73
2023/12/23 01:27:11;;;;;;;7.28;1.30;;;8.40;99.90;;;;;;4137200;28;20042;-72
2023/12/23 01:29:12;;;;;;;1.48;0.85;;;8.40;99.90;;;;;;4142592;28;20506;-72
2023/12/23 01:31:13;;;;;;;2.88;0.85;;;8.40;99.90;;;;;;4144848;28;20030;-71
2023/12/23 01:33:13;;;;;;;6.32;1.00;;;8.50;99.90;;;;;;4138860;28;20060;-71
2023/12/23 01:35:14;;;;;;;9.57;1.80;;;8.50;99.90;;;;;;4133478;28;20089;-72
2023/12/23 01:37:15;;;;;;;8.35;1.88;;;8.40;99.90;;;;;;4139149;28;20038;-72
2023/12/23 01:39:16;;;;;;;6.30;1.45;;;8.50;99.90;;;;;;4144188;28;20033;-72
2023/12/23 01:41:16;;;;;;;6.55;1.30;;;8.40;99.90;;;;;;4144808;28;20038;-72
2023/12/23 01:43:17;;;;;;;5.47;1.13;;;8.50;99.90;;;;;;4135867;28;20040;-72
2023/12/23 01:45:17;;;;;;;5.00;1.13;;;8.40;99.90;;;;;;4131147;28;20486;-72
2023/12/23 01:47:18;;;;;;;5.40;0.90;;;8.50;99.90;;;;;;4135557;28;20104;-71
2023/12/23 01:49:20;;;;;;;3.13;0.95;;;8.40;99.90;;;;;;4145034;28;20041;-71
2023/12/23 01:51:21;;;;;;;3.50;0.98;;;8.40;99.90;;;;;;4133184;28;20390;-72
2023/12/23 01:53:24;;;;;;;7.35;1.35;;;8.40;99.90;;;;;;4137154;28;20041;-71
2023/12/23 01:55:27;;;;;;;6.35;1.33;;;8.40;99.90;;;;;;4137525;28;20034;-71
2023/12/23 01:57:27;;;;;;;4.30;0.98;;;8.50;99.90;;;;;;4138608;28;20087;-71
2023/12/23 01:59:28;;;;;;;3.65;0.98;;;8.40;99.90;;;;;;4138415;28;20092;-71
2023/12/23 02:01:32;;;;;;;3.42;0.70;;;8.50;99.90;;;;;;4138727;28;20040;-72
2023/12/23 02:03:33;;;;;;;3.72;1.10;;;8.50;99.90;;;;;;4138124;28;20061;-72
2023/12/23 02:05:33;;;;;;;3.75;1.00;;;8.50;99.90;;;;;;4140913;28;20030;-71
2023/12/23 02:07:35;;;;;;;4.32;1.13;;;8.50;99.90;;;;;;4142286;28;20037;-72
2023/12/23 02:09:35;;;;;;;3.97;0.73;;;8.50;99.90;;;;;;4142849;28;20068;-65
2023/12/23 02:11:54;;;;;;;5.47;1.00;;;8.50;99.90;;;;;;4133679;28;20042;-66
2023/12/23 02:14:05;;;;;;;9.70;1.58;;;8.50;99.90;;;;;;4133536;28;20041;-66
2023/12/23 02:16:07;;;;;;;5.35;0.95;;;8.50;99.90;;;;;;4133856;28;22566;-66
2023/12/23 02:18:08;;;;;;;2.65;0.85;;;8.50;99.90;;;;;;4136836;28;20652;-65
2023/12/23 02:20:09;;;;;;;5.57;1.42;;;8.50;99.90;;;;;;4142591;28;20048;-66
2023/12/23 02:22:09;;;;;;;5.25;1.08;;;8.50;99.90;;;;;;4131369;28;20038;-66
2023/12/23 02:24:10;;;;;;;4.25;1.02;;;8.50;99.90;;;;;;4139699;28;20036;-66
2023/12/23 02:26:16;;;;;;;4.18;0.90;;;8.50;99.90;;;;;;4134582;28;20041;-65
2023/12/23 02:28:18;;;;;;;5.22;1.30;;;8.50;99.90;;;;;;4143160;28;20461;-65
2023/12/23 02:30:22;;;;;;;8.00;1.20;;;8.50;99.90;;;;;;4134175;28;20156;-66
2023/12/23 02:32:24;;;;;;;3.63;0.80;;;8.50;99.90;;;;;;4140366;28;20034;-66
2023/12/23 02:34:25;;;;;;;4.35;1.17;;;8.50;99.90;;;;;;4140629;28;20030;-66
2023/12/23 02:36:26;;;;;;;6.88;1.23;;;8.50;99.90;;;;;;4136757;28;20037;-66
2023/12/23 02:38:27;;;;;;;5.20;1.08;;;8.50;99.90;;;;;;4137628;28;20045;-65
2023/12/23 02:40:28;;;;;;;5.45;1.35;;;8.50;99.90;;;;;;4131764;28;20030;-66
2023/12/23 02:42:28;;;;;;;3.65;1.02;;;8.50;99.90;;;;;;4133829;28;20394;-65
2023/12/23 02:44:29;;;;;;;4.55;1.15;;;8.50;99.90;;;;;;4138184;28;20490;-66
2023/12/23 02:46:29;;;;;;;2.30;1.05;;;8.50;99.90;;;;;;4142642;28;20045;-65
2023/12/23 02:48:30;;;;;;;2.05;1.05;;;8.50;99.90;;;;;;4138785;28;20049;-65
2023/12/23 02:50:30;;;;;;;5.93;0.90;;;8.50;99.90;;;;;;4138341;28;20683;-65
2023/12/23 02:52:31;;;;;;;4.53;1.08;;;8.50;99.90;;;;;;4138418;28;20426;-66
2023/12/23 02:54:31;;;;;;;2.88;0.93;;;8.50;99.90;;;;;;4135292;28;20498;-65
2023/12/23 02:56:32;;;;;;;3.00;0.90;;;8.50;99.90;;;;;;4131153;28;20136;-65
2023/12/23 02:58:33;;;;;;;5.05;1.20;;;8.50;99.90;;;;;;4135937;28;20046;-65
2023/12/23 03:00:33;;;;;;;6.20;1.58;;;8.50;99.90;;;;;;4133273;28;20466;-66
2023/12/23 03:02:34;;;;;;;3.97;1.30;;;8.50;99.90;;;;;;4133279;28;20122;-66
2023/12/23 03:04:34;;;;;;;5.10;1.42;;;8.50;99.90;;;;;;4133968;28;20034;-66
2023/12/23 03:06:35;;;;;;;4.07;1.15;;;8.50;99.90;;;;;;4132096;28;20117;-66
2023/12/23 03:08:36;;;;;;;4.40;1.45;;;8.50;99.90;;;;;;4136820;28;20606;-66
2023/12/23 03:10:37;;;;;;;5.88;1.27;;;8.50;99.90;;;;;;4134953;28;20068;-66
2023/12/23 03:12:37;;;;;;;4.07;1.10;;;8.50;99.90;;;;;;4137605;28;20483;-66
2023/12/23 03:14:40;;;;;;;3.92;1.40;;;8.60;99.90;;;;;;4133974;28;20053;-66
2023/12/23 03:16:40;;;;;;;6.80;1.70;;;8.50;99.90;;;;;;4132434;28;20069;-65
2023/12/23 03:18:41;;;;;;;5.22;1.58;;;8.60;99.90;;;;;;4136667;28;24966;-66
2023/12/23 03:20:41;;;;;;;5.28;1.80;;;8.50;99.90;;;;;;4133543;28;20050;-80
2023/12/23 03:22:42;;;;;;;9.65;1.90;;;8.60;99.90;;;;;;4132921;28;20037;-80
2023/12/23 03:24:42;;;;;;;4.95;1.60;;;8.50;99.90;;;;;;4132329;28;20042;-81
2023/12/23 03:26:43;;;;;;;6.75;1.95;;;8.60;99.90;;;;;;4140461;28;20427;-81
2023/12/23 03:28:44;;;;;;;9.02;2.00;;;8.60;99.90;;;;;;4141433;28;20058;-80
2023/12/23 03:30:44;;;;;;;7.45;1.67;;;8.60;99.90;;;;;;4132079;28;20500;-80
2023/12/23 03:32:45;;;;;;;9.43;2.22;;;8.60;99.90;;;;;;4137822;28;20491;-81
2023/12/23 03:34:45;;;;;;;4.75;1.80;;;8.70;99.90;;;;;;4139817;28;20037;-80
2023/12/23 03:36:46;;;;;;;5.88;1.90;;;8.70;99.90;;;;;;4136562;28;20034;-80
2023/12/23 03:38:46;;;;;;;9.68;2.40;;;8.70;99.90;;;;;;4139049;28;20041;-80
2023/12/23 03:40:47;;;;;;;8.85;2.50;;;8.80;99.90;;;;;;4129327;28;20026;-80
2023/12/23 03:42:48;;;;;;;6.13;2.35;;;8.80;99.90;;;;;;4139808;28;20031;-80
2023/12/23 03:44:48;;;;;;;7.03;1.90;;;8.90;99.90;;;;;;4142335;28;20076;-74
2023/12/23 03:46:49;;;;;;;13.68;3.22;;;9.00;99.90;;;;;;4141129;28;20057;-80
2023/12/23 03:48:49;;;;;;;7.75;2.78;;;9.00;99.90;;;;;;4137692;28;20564;-80
2023/12/23 03:50:50;;;;;;;16.65;3.30;;;9.00;99.90;;;;;;4141946;28;20041;-80
2023/12/23 03:52:50;;;;;;;10.20;2.65;;;9.10;99.90;;;;;;4140853;28;20041;-79
2023/12/23 03:54:51;;;;;;;11.10;2.55;;;9.10;99.90;;;;;;4130625;28;20117;-81
2023/12/23 03:56:51;;;;;;;13.10;2.92;;;9.10;99.90;;;;;;4138017;28;20040;-80
2023/12/23 03:58:52;;;;;;;13.55;3.17;;;9.20;99.90;;;;;;4139254;28;20069;-74
2023/12/23 04:00:53;;;;;;;10.00;2.65;;;9.20;99.90;;;;;;4135906;28;20042;-79
2023/12/23 04:02:54;;;;;;;11.32;2.75;;;9.30;99.90;;;;;;4140486;28;20119;-80
2023/12/23 04:04:54;;;;;;;7.78;2.35;;;9.30;99.90;;;;;;4137275;28;20046;-80
2023/12/23 04:06:55;;;;;;;9.10;2.17;;;9.30;99.90;;;;;;4140571;28;20046;-80
2023/12/23 04:08:55;;;;;;;11.27;2.58;;;9.30;99.90;;;;;;4137590;28;20049;-80
2023/12/23 04:10:56;;;;;;;8.90;2.15;;;9.30;99.90;;;;;;4138211;28;20040;-80
2023/12/23 04:12:57;;;;;;;4.25;1.50;;;9.40;99.90;;;;;;4143251;28;20034;-80
2023/12/23 04:14:57;;;;;;;6.10;2.13;;;9.40;99.90;;;;;;4137504;28;20669;-80
2023/12/23 04:16:58;;;;;;;9.15;2.17;;;9.40;99.90;;;;;;4138972;28;20031;-79
2023/12/23 04:18:59;;;;;;;8.55;2.33;;;9.40;99.90;;;;;;4140888;28;20042;-79
2023/12/23 04:20:59;;;;;;;12.30;2.17;;;9.40;99.90;;;;;;4130130;28;20066;-80
2023/12/23 04:23:00;;;;;;;9.15;1.95;;;9.40;99.90;;;;;;4135655;28;20472;-80
2023/12/23 04:25:01;;;;;;;11.57;2.33;;;9.40;99.90;;;;;;4136230;28;20156;-80
2023/12/23 04:27:01;;;;;;;7.95;1.83;;;9.40;99.90;;;;;;4137720;28;20034;-81
2023/12/23 04:29:02;;;;;;;8.20;2.08;;;9.40;99.90;;;;;;4145007;28;20053;-63
2023/12/23 04:31:03;;;;;;;9.05;2.33;;;9.40;99.90;;;;;;4143709;28;20041;-69
2023/12/23 04:33:03;;;;;;;10.80;2.78;;;9.40;99.90;;;;;;4144145;28;20100;-69
2023/12/23 04:35:05;;;;;;;10.65;2.33;;;9.40;99.90;;;;;;4141539;28;20092;-70
2023/12/23 04:37:06;;;;;;;8.23;2.00;;;9.40;99.90;;;;;;4141399;28;20058;-69
2023/12/23 04:39:06;;;;;;;6.40;1.80;;;9.40;99.90;;;;;;4141722;28;20053;-69
2023/12/23 04:41:07;;;;;;;6.53;2.25;;;9.50;99.90;;;;;;4143439;28;20030;-69
2023/12/23 04:43:09;;;;;;;8.82;2.30;;;9.50;99.90;;;;;;4141032;28;20394;-69
2023/12/23 04:45:09;;;;;;;6.82;1.80;;;9.50;99.90;;;;;;4135626;28;20034;-70
2023/12/23 04:47:10;;;;;;;8.95;1.88;;;9.40;99.90;;;;;;4143934;28;20387;-70
2023/12/23 04:49:11;;;;;;;9.35;2.13;;;9.50;99.90;;;;;;4143424;28;20049;-69
2023/12/23 04:51:11;;;;;;;7.80;2.03;;;9.50;99.90;;;;;;4144061;28;20041;-70
2023/12/23 04:53:12;;;;;;;8.07;1.75;;;9.50;99.90;;;;;;4142958;28;20481;-70
2023/12/23 04:55:13;;;;;;;9.50;2.10;;;9.50;99.90;;;;;;4142997;28;20034;-70
2023/12/23 04:57:13;;;;;;;7.85;2.38;;;9.50;99.90;;;;;;4144618;28;20191;-69
2023/12/23 04:59:14;;;;;;;13.35;2.35;;;9.50;99.90;;;;;;4150347;28;20101;-70
2023/12/23 05:01:14;;;;;;;5.85;1.98;;;9.40;99.90;;;;;;4137445;28;20033;-69
2023/12/23 05:03:15;;;;;;;10.73;2.92;;;9.40;99.90;;;;;;4141709;28;20034;-69
2023/12/23 05:05:15;;;;;;;9.82;2.10;;;9.40;99.90;;;;;;4136041;28;20037;-70
2023/12/23 05:07:16;;;;;;;9.90;2.33;;;9.40;99.90;;;;;;4133201;28;20104;-70
2023/12/23 05:09:17;;;;;;;7.22;2.35;;;9.40;99.90;;;;;;4131204;28;20035;-69
2023/12/23 05:11:17;;;;;;;6.45;2.08;;;9.40;99.90;;;;;;4133230;28;20034;-69
2023/12/23 05:13:18;;;;;;;6.32;2.25;;;9.40;99.90;;;;;;4137877;28;20026;-69
2023/12/23 05:15:19;;;;;;;8.57;2.35;;;9.40;99.90;;;;;;4137314;28;20049;-70
2023/12/23 05:17:19;;;;;;;10.68;2.20;;;9.40;99.90;;;;;;4144265;28;20042;-69
2023/12/23 05:19:20;;;;;;;10.15;2.17;;;9.40;99.90;;;;;;4141944;28;20046;-69
2023/12/23 05:21:21;;;;;;;10.23;2.55;;;9.40;99.90;;;;;;4136729;28;20482;-70
2023/12/23 05:23:22;;;;;;;8.55;1.88;;;9.50;99.90;;;;;;4140670;28;20477;-69
2023/12/23 05:25:22;;;;;;;7.15;2.30;;;9.50;99.90;;;;;;4138019;28;20066;-69
2023/12/23 05:27:23;;;;;;;5.50;1.75;;;9.50;99.90;;;;;;4129434;28;20551;-69
2023/12/23 05:29:23;;;;;;;8.23;2.30;;;9.50;99.90;;;;;;4136635;28;20115;-69
2023/12/23 05:31:24;;;;;;;8.38;2.30;;;9.50;99.90;;;;;;4134967;28;20038;-70
2023/12/23 05:33:25;;;;;;;5.88;1.88;;;9.50;99.90;;;;;;4135949;28;20038;-69
2023/12/23 05:35:25;;;;;;;5.82;2.15;;;9.50;99.90;;;;;;4137852;28;20233;-69
2023/12/23 05:37:26;;;;;;;7.95;2.55;;;9.50;99.90;;;;;;4141331;28;20592;-70
2023/12/23 05:39:26;;;;;;;7.80;2.38;;;9.50;99.90;;;;;;4141411;28;20482;-70
2023/12/23 05:41:27;;;;;;;4.93;2.00;;;9.50;99.90;;;;;;4135507;28;20367;-70
2023/12/23 05:43:27;;;;;;;12.77;2.55;;;9.50;99.90;;;;;;4138502;28;20038;-69
2023/12/23 05:45:28;;;;;;;5.55;2.00;;;9.50;99.90;;;;;;4137571;28;20379;-69
2023/12/23 05:47:29;;;;;;;10.27;2.10;;;9.50;99.90;;;;;;4143237;28;20042;-69
2023/12/23 05:49:29;;;;;;;11.07;2.15;;;9.50;99.90;;;;;;4137574;28;20057;-69
2023/12/23 05:51:30;;;;;;;10.65;2.15;;;9.50;99.90;;;;;;4136669;28;20061;-70
2023/12/23 05:53:31;;;;;;;11.23;2.20;;;9.50;99.90;;;;;;4135560;28;20042;-70
2023/12/23 05:55:31;;;;;;;6.32;2.20;;;9.50;99.90;;;;;;4133485;28;20045;-70
2023/12/23 05:57:32;;;;;;;9.63;2.42;;;9.50;99.90;;;;;;4137740;28;20030;-70
2023/12/23 05:59:33;;;;;;;6.43;2.10;;;9.50;99.90;;;;;;4139777;28;20048;-69
2023/12/23 06:01:33;;;;;;;8.05;2.03;;;9.50;99.90;;;;;;4138497;28;20169;-69
2023/12/23 06:03:34;;;;;;;8.38;2.22;;;9.50;99.90;;;;;;4134327;28;20034;-69
2023/12/23 06:05:34;;;;;;;12.00;2.33;;;9.50;99.90;;;;;;4133756;28;20041;-69
2023/12/23 06:07:35;;;;;;;9.30;2.25;;;9.50;99.90;;;;;;4141098;28;20121;-69
2023/12/23 06:09:36;;;;;;;5.13;1.70;;;9.60;99.90;;;;;;4135088;28;20057;-70
2023/12/23 06:11:36;;;;;;;5.65;1.70;;;9.50;99.90;;;;;;4142227;28;20054;-69
2023/12/23 06:13:37;;;;;;;7.05;1.92;;;9.50;99.90;;;;;;4132359;28;20129;-69
2023/12/23 06:15:37;;;;;;;7.15;2.28;;;9.50;99.90;;;;;;4139387;28;20160;-69
2023/12/23 06:17:38;;;;;;;8.90;1.88;;;9.50;99.90;;;;;;4143574;28;20054;-69
2023/12/23 06:19:39;;;;;;;6.55;1.90;;;9.50;99.90;;;;;;4141316;28;20045;-69
2023/12/23 06:21:45;;;;;;;9.18;2.33;;;9.50;99.90;;;;;;4137266;28;20042;-69
2023/12/23 06:23:46;;;;;;;5.97;2.03;;;9.60;99.90;;;;;;4134036;28;20117;-69
2023/12/23 06:25:46;;;;;;;6.63;1.98;;;9.60;99.90;;;;;;4140070;28;20058;-69
2023/12/23 06:27:47;;;;;;;7.75;2.00;;;9.60;99.90;;;;;;4140623;28;20057;-69
2023/12/23 06:29:48;;;;;;;15.20;2.50;;;9.60;99.90;;;;;;4139708;28;20053;-69
2023/12/23 06:31:48;;;;;;;7.38;1.83;;;9.60;99.90;;;;;;4130336;28;20489;-69
2023/12/23 06:33:49;;;;;;;8.57;2.47;;;9.60;99.90;;;;;;4137662;28;20062;-69
2023/12/23 06:35:49;;;;;;;8.48;2.00;;;9.60;99.90;;;;;;4133414;28;20042;-69
2023/12/23 06:37:50;;;;;;;9.95;2.30;;;9.70;99.90;;;;;;4139268;28;20541;-69
2023/12/23 06:39:51;;;;;;;13.75;2.35;;;9.70;99.90;;;;;;4140433;28;20042;-69
2023/12/23 06:41:51;;;;;;;12.80;2.53;;;9.60;99.90;;;;;;4139331;28;20069;-69
2023/12/23 06:43:52;;;;;;;9.85;2.10;;;9.70;99.90;;;;;;4134245;28;20447;-69
2023/12/23 06:45:53;;;;;;;11.50;2.35;;;9.60;99.90;;;;;;4134315;28;20049;-69
2023/12/23 06:47:54;;;;;;;9.93;2.65;;;9.70;99.90;;;;;;4136226;28;20057;-70
2023/12/23 06:49:55;;;;;;;8.30;1.85;;;9.70;99.90;;;;;;4142500;28;20500;-69
2023/12/23 06:51:56;;;;;;;8.77;1.92;;;9.70;99.90;;;;;;4139241;28;20053;-69
2023/12/23 06:53:57;;;;;;;6.35;1.75;;;9.70;99.90;;;;;;4142217;28;20049;-69
2023/12/23 06:55:57;;;;;;;7.78;2.30;;;9.70;99.90;;;;;;4138330;28;20041;-69
2023/12/23 06:57:58;;;;;;;12.68;2.38;;;9.70;99.90;;;;;;4138944;28;20038;-69
2023/12/23 06:59:59;;;;;;;11.73;2.70;;;9.70;99.90;;;;;;4144910;28;20129;-69
2023/12/23 07:02:00;;;;;;;14.95;2.80;;;9.70;99.90;;;;;;4146615;28;20038;-69
2023/12/23 07:04:00;;;;;;;9.10;2.35;;;9.70;99.90;;;;;;4145164;28;20148;-69
2023/12/23 07:06:01;;;;;;;11.05;2.60;;;9.70;99.90;;;;;;4139519;28;20037;-69
2023/12/23 07:08:01;;;;;;;11.63;2.25;;;9.70;99.90;;;;;;4140491;28;20034;-70
2023/12/23 07:10:03;;;;;;;10.93;2.08;;;9.70;99.90;;;;;;4142756;28;20042;-66
2023/12/23 07:12:04;;;;;;;19.35;3.15;;;9.70;99.90;;;;;;4139775;28;20045;-66
2023/12/23 07:14:05;;;;;;;8.00;2.47;;;9.70;99.90;;;;;;4148083;28;20476;-66
2023/12/23 07:16:07;;;;;;;14.85;2.60;;;9.70;99.90;;;;;;4142322;28;20064;-66
2023/12/23 07:18:09;;;;;;;15.07;2.45;;;9.70;99.90;;;;;;4145131;28;20038;-66
2023/12/23 07:20:11;;;;;;;7.82;1.73;;;9.70;99.90;;;;;;4144348;28;20061;-66
2023/12/23 07:22:11;;;;;;;14.38;2.83;;;9.70;99.90;;;;;;4128805;28;20069;-66
2023/12/23 07:24:12;;;;;;;9.60;2.42;;;9.70;99.90;;;;;;4143153;28;20029;-65
2023/12/23 07:26:14;;;;;;;14.13;2.55;;;9.70;99.90;;;;;;4142843;28;20030;-65
2023/12/23 07:28:14;;;;;;;5.18;1.50;;;9.70;99.90;;;;;;4136510;28;20042;-66
2023/12/23 07:30:15;;;;;;;6.40;1.65;;;9.70;99.90;;;;;;4141186;28;20271;-66
2023/12/23 07:32:16;;;;;;;8.57;2.03;;;9.70;99.90;;;;;;4133581;28;20050;-66
2023/12/23 07:34:16;;;;;;;9.73;2.22;;;9.70;99.90;;;;;;4139016;28;20466;-66
2023/12/23 07:36:17;;;;;;;6.90;1.90;;;9.70;99.90;;;;;;4143020;28;20386;-66
2023/12/23 07:38:17;;;;;;;6.88;2.42;;;9.70;99.90;;;;;;4138149;28;20041;-66
2023/12/23 07:40:18;;;;;;;8.75;2.05;;;9.70;99.90;;;;;;4140682;28;20049;-65
2023/12/23 07:42:19;;;;;;;8.48;2.17;;;9.70;99.90;;;;;;4147455;28;20065;-66
2023/12/23 07:44:20;;;;;;;7.72;1.95;;;9.70;99.90;;;;;;4143305;28;20125;-66
2023/12/23 07:46:20;;;;;;;8.05;2.38;;;9.70;99.90;;;;;;4138004;28;20046;-66
2023/12/23 07:48:21;;;;;;;11.48;2.53;;;9.60;99.90;;;;;;4137908;28;20042;-69
2023/12/23 07:50:22;;;;;;;10.93;2.17;;;9.60;99.90;;;;;;4130923;28;20418;-70
2023/12/23 07:52:23;;;;;;;10.90;2.22;;;9.60;99.90;;;;;;4143484;28;20390;-69
2023/12/23 07:54:24;;;;;;;8.80;2.00;;;9.70;99.90;;;;;;4145047;28;20096;-70
2023/12/23 07:56:25;;;;;;;12.77;2.80;;;9.70;99.90;;;;;;4142707;28;20122;-70
2023/12/23 07:58:27;;;;;;;14.02;2.72;;;9.70;99.90;;;;;;4142436;28;20034;-70
2023/12/23 08:00:27;;;;;;;10.93;2.55;;;9.70;99.90;;;;;;4146567;28;21558;-70
2023/12/23 08:02:28;;;;;;;9.55;2.35;;;9.70;99.90;;;;;;4141030;28;20119;-70
2023/12/23 08:04:28;;;;;;;7.28;1.90;;;9.70;99.90;;;;;;4133853;28;20057;-70
2023/12/23 08:06:29;;;;;;;10.77;2.28;;;9.70;99.90;;;;;;4139408;28;20031;-70
2023/12/23 08:08:30;;;;;;;11.20;2.30;;;9.70;99.90;;;;;;4138068;28;20081;-69
2023/12/23 08:10:30;;;;;;;12.73;2.97;;;9.70;99.90;;;;;;4145631;28;20038;-70
2023/12/23 08:12:31;;;;;;;16.75;2.70;;;9.70;99.90;;;;;;4144848;28;20046;-69
2023/12/23 08:14:31;;;;;;;11.07;2.80;;;9.80;99.90;;;;;;4145734;28;20063;-70
2023/12/23 08:16:32;;;;;;;10.38;2.33;;;9.80;99.90;;;;;;4141573;28;20381;-69
2023/12/23 08:18:33;;;;;;;8.43;2.17;;;9.80;99.90;;;;;;4146902;28;20115;-69
2023/12/23 08:20:33;;;;;;;8.40;2.17;;;9.80;99.90;;;;;;4143002;28;20064;-71
2023/12/23 08:22:34;;;;;;;11.80;2.70;;;9.90;99.90;;;;;;4149517;28;20111;-71
2023/12/23 08:24:34;;;;;;;10.80;2.22;;;9.90;99.90;;;;;;4161586;28;20030;-71
2023/12/23 08:26:35;;;;;;;6.68;1.90;;;9.90;99.90;;;;;;4130357;28;20038;-70
2023/12/23 08:28:36;;;;;;;7.13;2.13;;;9.90;99.90;;;;;;4140630;28;20038;-71
2023/12/23 08:30:37;;;;;;;12.00;2.88;;;9.90;99.90;;;;;;4144777;28;20042;-71
2023/12/23 08:32:37;;;;;;;11.50;2.78;;;9.90;99.90;;;;;;4135942;28;20058;-71
2023/12/23 08:34:38;;;;;;;9.88;2.88;;;9.90;99.90;;;;;;4147007;28;20064;-70
2023/12/23 08:36:39;;;;;;;9.07;2.17;;;10.00;99.90;;;;;;4146273;28;20038;-71
2023/12/23 08:38:39;;;;;;;9.05;2.20;;;10.00;99.90;;;;;;4146828;28;20038;-70
2023/12/23 08:40:40;;;;;;;7.03;2.03;;;10.00;99.90;;;;;;4141932;28;20038;-70
2023/12/23 08:42:41;;;;;;;9.38;2.10;;;10.00;99.90;;;;;;4143476;28;20163;-70
2023/12/23 08:44:41;;;;;;;11.77;2.67;;;10.00;99.90;;;;;;4161070;28;20033;-70
2023/12/23 08:46:42;;;;;;;10.63;2.53;;;10.00;99.90;;;;;;4142680;28;20129;-71
2023/12/23 08:48:43;;;;;;;12.88;2.50;;;10.00;99.90;;;;;;4144643;28;20081;-70
2023/12/23 08:50:43;;;;;;;6.70;2.20;;;10.00;99.90;;;;;;4136334;28;20045;-70
2023/12/23 08:52:44;;;;;;;11.55;2.25;;;10.00;99.90;;;;;;4145921;28;20046;-70
2023/12/23 08:54:44;;;;;;;6.53;1.70;;;10.00;99.90;;;;;;4146731;28;20044;-70
2023/12/23 08:56:45;;;;;;;7.90;2.08;;;10.10;99.90;;;;;;4143815;28;20052;-70
2023/12/23 08:58:45;;;;;;;10.63;2.40;;;10.10;99.90;;;;;;4141528;28;20129;-70
2023/12/23 09:00:46;;;;;;;13.18;2.42;;;10.10;99.90;;;;;;4139501;28;20534;-70
2023/12/23 09:02:47;;;;;;;7.40;1.80;;;10.10;99.90;;;;;;4144486;28;20068;-70
2023/12/23 09:04:47;;;;;;;9.98;2.53;;;10.10;99.90;;;;;;4146783;28;20485;-70
2023/12/23 09:06:48;;;;;;;15.45;2.42;;;10.10;99.90;;;;;;4161011;28;20029;-70
2023/12/23 09:08:51;;;;;;;9.73;2.15;;;10.10;99.90;;;;;;4142871;28;20053;-70
2023/12/23 09:10:51;;;;;;;8.57;2.30;;;10.10;99.90;;;;;;4136721;28;20075;-70
2023/12/23 09:12:52;;;;;;;9.10;2.00;;;10.10;99.90;;;;;;4145595;28;20045;-70
2023/12/23 09:14:53;;;;;;;12.18;2.28;;;10.10;99.90;;;;;;4134165;28;20146;-70
2023/12/23 09:16:53;;;;;;;11.68;2.47;;;10.10;99.90;;;;;;4142363;28;20062;-70
2023/12/23 09:18:54;;;;;;;11.48;2.47;;;10.20;99.90;;;;;;4145835;28;20030;-70
2023/12/23 09:20:54;;;;;;;8.45;1.80;;;10.20;99.90;;;;;;4143192;28;20386;-71
2023/12/23 09:22:55;;;;;;;12.77;2.33;;;10.20;99.90;;;;;;4137820;28;20038;-70
2023/12/23 09:24:56;;;;;;;11.10;2.00;;;10.20;99.90;;;;;;4143130;28;20033;-70
2023/12/23 09:26:56;;;;;;;15.13;2.58;;;10.20;99.90;;;;;;4146464;28;20121;-70
2023/12/23 09:28:57;;;;;;;12.98;2.63;;;10.20;99.90;;;;;;4147440;28;20057;-71
2023/12/23 09:30:57;;;;;;;8.25;2.28;;;10.20;99.90;;;;;;4146630;28;20033;-72
2023/12/23 09:32:58;;;;;;;13.80;2.15;;;10.20;99.90;;;;;;4147074;28;20050;-74
2023/12/23 09:34:59;;;;;;;11.10;2.00;;;10.20;99.90;;;;;;4147274;28;20030;-74
2023/12/23 09:37:00;;;;;;;14.60;2.38;;;10.20;99.90;;;;;;4146623;28;20034;-74
2023/12/23 09:39:01;;;;;;;8.18;1.90;;;10.30;99.90;;;;;;4129498;28;20042;-75
2023/12/23 09:41:02;;;;;;;6.28;1.27;;;10.20;99.90;;;;;;4144345;28;20455;-74
2023/12/23 09:43:03;;;;;;;6.43;1.75;;;10.20;99.90;;;;;;4131438;28;20026;-74
2023/12/23 09:45:04;;;;;;;8.35;2.30;;;10.20;99.90;;;;;;4146699;28;20117;-75
2023/12/23 09:47:05;;;;;;;10.13;1.75;;;10.20;99.90;;;;;;4146497;28;20540;-75
2023/12/23 09:49:06;;;;;;;10.02;1.85;;;10.30;99.90;;;;;;4146865;28;20046;-74
2023/12/23 09:51:07;;;;;;;11.30;1.77;;;10.30;99.90;;;;;;4146104;28;20092;-75
2023/12/23 09:53:12;;;;;;;11.25;2.05;;;10.30;99.90;;;;;;4146861;28;20144;-75
2023/12/23 09:55:16;;;;;;;10.88;2.17;;;10.30;99.90;;;;;;4145408;28;20038;-81
2023/12/23 09:57:18;;;;;;;11.07;2.40;;;10.30;99.90;;;;;;4147065;28;20034;-79
2023/12/23 09:59:19;;;;;;;10.98;2.33;;;10.20;99.90;;;;;;4146805;28;20053;-75
2023/12/23 10:01:20;;;;;;;8.63;1.75;;;10.20;99.90;;;;;;4145727;28;20045;-76
2023/12/23 10:03:22;;;;;;;8.93;1.75;;;10.20;99.90;;;;;;4146883;28;20144;-76
2023/12/23 10:05:25;;;;;;;8.43;1.65;;;10.20;99.90;;;;;;4144838;28;20037;-76
2023/12/23 10:07:26;;;;;;;10.35;1.55;;;10.20;99.90;;;;;;4146626;28;20116;-75
2023/12/23 10:09:30;;;;;;;7.22;1.30;;;10.20;99.90;;;;;;4145389;28;20157;-75
2023/12/23 10:11:30;;;;;;;5.28;1.17;;;10.10;99.90;;;;;;4144198;28;20087;-76
2023/12/23 10:13:31;;;;;;;3.53;1.25;;;10.10;99.90;;;;;;4142009;28;20428;-75
2023/12/23 10:15:32;;;;;;;8.98;1.73;;;10.10;99.90;;;;;;4136267;28;20359;-75
2023/12/23 10:17:33;;;;;;;10.40;1.98;;;10.10;99.90;;;;;;4128292;28;20035;-76
2023/12/23 10:19:33;;;;;;;2.42;1.10;;;10.00;99.90;;;;;;4130391;28;20042;-75
2023/12/23 10:21:35;;;;;;;6.57;1.42;;;10.10;99.90;;;;;;4140788;28;20026;-76
2023/12/23 10:23:35;;;;;;;6.60;1.88;;;10.10;99.90;;;;;;4146532;28;20382;-75
2023/12/23 10:25:38;;;;;;;4.55;1.77;;;10.10;99.90;;;;;;4145768;28;20034;-75
2023/12/23 10:27:40;;;;;;;10.60;2.22;;;10.10;99.90;;;;;;4128745;28;20040;-75
2023/12/23 10:29:43;;;;;;;5.85;1.48;;;10.10;99.90;;;;;;4146258;28;20042;-76
2023/12/23 10:31:48;;;;;;;5.13;1.30;;;10.10;99.90;;;;;;4145849;28;20387;-75
2023/12/23 10:33:54;;;;;;;10.95;2.08;;;10.10;99.90;;;;;;4146370;28;20038;-76